Marne, Iowa
Current Conditions -  °F | °C
As of 1:15 PM on Saturday 25 Oct 2014 (Local Time) from KHNR Reporting Station
Clear Clear  
Wind Chill: 70°   Ceiling: Unl
Heat Index: 70°   Visibility: 10mi
Dew Point: 36°   Wind: 7mph
Humidity: 28%   Direction: 80°E
Pressure: 30.13"   Gusts: NA
Location:  41.45°N, 95.11°W
Report Text: KHNR 251815Z AUTO 08006KT 10SM CLR 21/02 A3013 RMK AO2
Loading
Personal Weather Stations






























Interactive Weather Map
Tropical Storm Tracking
New forecast layout! Learn more

10-Day Weather Forecast

Advertisements
Track Severe Weather on mobile